Time;durP1;ratioP1;P1;durP2;ratioP2;P2;SDS_P1;SDS_P2;PMS_P1;PMS_P2;Temp;Humidity;BMP_temperature;BMP_pressure;BME280_temperature;BME280_humidity;BME280_pressure;Samples;Min_cycle;Max_cycle;Signal;HPM_P1;HPM_P2
2022/05/31 00:01:03;;;;;;;2.83;2.47;;;18.80;54.40;;;;;;6189507;23;20560;-87
2022/05/31 00:03:29;;;;;;;3.25;2.30;;;18.80;54.40;;;;;;6189565;23;20162;-86
2022/05/31 00:05:55;;;;;;;3.17;2.20;;;18.80;54.40;;;;;;6164566;23;20126;-86
2022/05/31 00:08:20;;;;;;;3.83;2.10;;;18.80;54.40;;;;;;6161524;23;20138;-86
2022/05/31 00:10:46;;;;;;;2.80;2.08;;;18.70;54.40;;;;;;6166581;23;20134;-86
2022/05/31 00:13:12;;;;;;;5.45;2.70;;;18.80;54.40;;;;;;6166570;23;20134;-87
2022/05/31 00:15:37;;;;;;;3.45;2.63;;;18.80;54.50;;;;;;6137058;23;20151;-87
2022/05/31 00:18:03;;;;;;;3.67;2.50;;;18.70;54.40;;;;;;6186671;23;20622;-87
2022/05/31 00:20:32;;;;;;;3.05;2.20;;;18.80;54.40;;;;;;6140315;23;20159;-87
2022/05/31 00:22:58;;;;;;;4.07;2.33;;;18.80;54.40;;;;;;6166619;23;20263;-87
2022/05/31 00:25:24;;;;;;;3.30;2.45;;;18.80;54.40;;;;;;6191308;23;20137;-87
2022/05/31 00:27:50;;;;;;;4.18;2.70;;;18.80;54.40;;;;;;6167878;23;20146;-86
2022/05/31 00:30:16;;;;;;;2.58;2.17;;;18.70;54.40;;;;;;6166648;23;20165;-87
2022/05/31 00:32:44;;;;;;;2.72;2.20;;;18.80;54.50;;;;;;6166705;23;20142;-86
2022/05/31 00:35:17;;;;;;;3.65;2.28;;;18.70;54.50;;;;;;6142102;23;20150;-88
2022/05/31 00:37:43;;;;;;;4.25;2.60;;;18.70;54.50;;;;;;6191756;23;20150;-86
2022/05/31 00:40:09;;;;;;;4.03;2.22;;;18.70;54.50;;;;;;6187722;23;20190;-88
2022/05/31 00:42:54;;;;;;;2.50;2.08;;;18.70;54.50;;;;;;6191358;23;20138;-86
2022/05/31 00:45:24;;;;;;;3.63;2.28;;;18.70;54.40;;;;;;6202135;23;20146;-87
2022/05/31 00:47:50;;;;;;;4.10;2.17;;;18.70;54.60;;;;;;6191094;23;20137;-85
2022/05/31 00:50:24;;;;;;;2.47;2.28;;;18.70;54.50;;;;;;6216014;23;20134;-86
2022/05/31 00:52:54;;;;;;;2.47;2.28;;;18.70;54.60;;;;;;6166818;23;20142;-88
2022/05/31 00:55:22;;;;;;;4.90;2.20;;;18.60;54.60;;;;;;6191951;23;20216;-86
2022/05/31 00:57:56;;;;;;;2.42;2.17;;;18.70;54.60;;;;;;6215933;23;20161;-87
2022/05/31 01:00:23;;;;;;;3.63;2.60;;;18.70;54.60;;;;;;6191609;23;20249;-86
2022/05/31 01:02:49;;;;;;;2.92;2.55;;;18.70;55.20;;;;;;6190847;23;20142;-86
2022/05/31 01:05:15;;;;;;;3.17;2.30;;;18.70;54.60;;;;;;6166354;23;20769;-87
2022/05/31 01:07:40;;;;;;;3.15;2.40;;;18.70;54.50;;;;;;6165996;23;20154;-87
2022/05/31 01:10:10;;;;;;;2.50;2.28;;;18.60;54.50;;;;;;6166109;23;20149;-86
2022/05/31 01:12:37;;;;;;;2.60;2.33;;;18.70;54.60;;;;;;6166560;23;20173;-87
2022/05/31 01:15:03;;;;;;;3.45;2.53;;;18.70;54.60;;;;;;6191105;23;20130;-87
2022/05/31 01:17:28;;;;;;;2.92;2.65;;;18.70;54.60;;;;;;6217570;23;20134;-87
2022/05/31 01:19:55;;;;;;;4.00;2.80;;;18.70;54.60;;;;;;6190640;23;20233;-86
2022/05/31 01:22:23;;;;;;;2.85;2.50;;;18.70;54.60;;;;;;6190496;23;20142;-87
2022/05/31 01:24:53;;;;;;;2.67;2.33;;;18.70;54.70;;;;;;6191283;23;20205;-87
2022/05/31 01:27:34;;;;;;;2.50;2.30;;;18.70;54.70;;;;;;6215731;23;20620;-87
2022/05/31 01:30:02;;;;;;;3.30;2.55;;;18.70;54.70;;;;;;6191065;23;20593;-88
2022/05/31 01:32:28;;;;;;;2.72;2.10;;;18.70;54.70;;;;;;6190630;23;20150;-88
2022/05/31 01:35:02;;;;;;;2.85;2.38;;;18.70;54.70;;;;;;6190643;23;20146;-87
2022/05/31 01:37:36;;;;;;;3.25;2.53;;;18.70;54.80;;;;;;6190408;23;20236;-86
2022/05/31 01:40:04;;;;;;;2.60;2.35;;;18.60;54.80;;;;;;6190462;23;20564;-86
2022/05/31 01:42:36;;;;;;;3.00;2.28;;;18.70;54.80;;;;;;6215369;23;20195;-87
2022/05/31 01:45:26;;;;;;;3.50;2.40;;;18.60;54.70;;;;;;6190081;23;20193;-88
2022/05/31 01:47:53;;;;;;;2.55;2.17;;;18.70;54.70;;;;;;6211210;23;20157;-87
2022/05/31 01:50:20;;;;;;;2.90;2.38;;;18.60;54.70;;;;;;6161886;23;20151;-88
2022/05/31 01:52:46;;;;;;;2.97;2.30;;;18.70;54.80;;;;;;6215299;23;20597;-88
2022/05/31 01:55:12;;;;;;;3.72;2.40;;;18.60;54.80;;;;;;6190473;23;20134;-88
2022/05/31 01:57:40;;;;;;;2.45;2.25;;;18.70;55.40;;;;;;6215474;23;20130;-86
2022/05/31 02:00:08;;;;;;;3.10;2.50;;;18.60;54.80;;;;;;6190580;23;20141;-87
2022/05/31 02:02:35;;;;;;;2.40;2.17;;;18.60;54.80;;;;;;6166012;23;20237;-86
2022/05/31 02:05:01;;;;;;;2.92;2.60;;;18.70;54.90;;;;;;6165277;23;20196;-85
2022/05/31 02:07:27;;;;;;;2.58;2.38;;;18.60;54.70;;;;;;6215932;23;20551;-87
2022/05/31 02:09:53;;;;;;;2.38;2.15;;;18.70;54.80;;;;;;6215655;23;20157;-86
2022/05/31 02:12:20;;;;;;;2.50;2.20;;;18.60;54.80;;;;;;6215299;23;20233;-88
2022/05/31 02:14:46;;;;;;;3.63;2.70;;;18.60;54.70;;;;;;6190717;23;20154;-86
2022/05/31 02:17:12;;;;;;;2.55;2.35;;;18.60;54.80;;;;;;6215880;23;20272;-85
2022/05/31 02:19:38;;;;;;;2.60;2.40;;;18.60;54.90;;;;;;6190357;23;20189;-85
2022/05/31 02:22:07;;;;;;;3.53;2.33;;;18.60;54.80;;;;;;6215435;23;20194;-86
2022/05/31 02:24:32;;;;;;;4.78;2.40;;;18.60;54.90;;;;;;6190568;23;20158;-87
2022/05/31 02:27:00;;;;;;;2.30;2.10;;;18.60;54.80;;;;;;6216632;23;20188;-86
2022/05/31 02:29:29;;;;;;;2.72;2.50;;;18.60;54.90;;;;;;6215224;23;20557;-86
2022/05/31 02:31:56;;;;;;;2.80;2.30;;;18.60;54.80;;;;;;6215189;23;20497;-87
2022/05/31 02:34:23;;;;;;;2.83;2.55;;;18.60;54.90;;;;;;6215311;23;20139;-88
2022/05/31 02:36:50;;;;;;;3.95;2.53;;;18.60;54.90;;;;;;6215559;23;20265;-87
2022/05/31 02:39:16;;;;;;;2.75;2.30;;;18.60;54.90;;;;;;6215011;23;20636;-86
2022/05/31 02:41:42;;;;;;;3.85;2.35;;;18.60;54.90;;;;;;6190239;23;20134;-87
2022/05/31 02:44:08;;;;;;;2.78;2.28;;;18.60;55.00;;;;;;6190360;23;20212;-87
2022/05/31 02:46:33;;;;;;;2.42;2.22;;;18.60;54.90;;;;;;6190295;23;20488;-86
2022/05/31 02:49:00;;;;;;;3.03;2.65;;;18.60;54.90;;;;;;6190142;23;20146;-86
2022/05/31 02:51:26;;;;;;;2.53;2.10;;;18.60;55.00;;;;;;6190029;23;20138;-87
2022/05/31 02:53:52;;;;;;;3.70;2.50;;;18.60;54.80;;;;;;6190289;23;20177;-87
2022/05/31 02:56:18;;;;;;;2.80;2.58;;;18.50;54.80;;;;;;6165112;23;20581;-86
2022/05/31 02:58:44;;;;;;;2.80;2.45;;;18.60;54.90;;;;;;6189868;23;20581;-86
2022/05/31 03:01:23;;;;;;;4.35;2.40;;;18.60;54.90;;;;;;6165345;23;20232;-87
2022/05/31 03:03:49;;;;;;;2.80;2.58;;;18.60;55.00;;;;;;6165089;23;20228;-87
2022/05/31 03:06:15;;;;;;;2.75;2.47;;;18.60;55.00;;;;;;6190355;23;20221;-87
2022/05/31 03:08:43;;;;;;;3.42;2.42;;;18.60;55.00;;;;;;6215012;23;20161;-87
2022/05/31 03:11:14;;;;;;;3.03;2.28;;;18.60;55.00;;;;;;6214932;23;20212;-87
2022/05/31 03:13:39;;;;;;;2.80;2.38;;;18.60;55.00;;;;;;6189709;23;20158;-86
2022/05/31 03:16:05;;;;;;;2.97;2.65;;;18.60;55.00;;;;;;6216561;23;20138;-85
2022/05/31 03:18:35;;;;;;;2.60;2.40;;;18.60;55.00;;;;;;6214980;23;20141;-86
2022/05/31 03:21:11;;;;;;;3.17;2.65;;;18.60;55.00;;;;;;6214850;23;20176;-87
2022/05/31 03:23:41;;;;;;;2.65;2.20;;;18.60;55.00;;;;;;6190201;23;20177;-87
2022/05/31 03:26:08;;;;;;;2.67;2.47;;;18.60;55.00;;;;;;6214773;23;20596;-87
2022/05/31 03:28:33;;;;;;;2.72;2.50;;;18.60;55.00;;;;;;6189643;23;20157;-87
2022/05/31 03:31:01;;;;;;;2.78;2.42;;;18.60;55.00;;;;;;6190051;23;20150;-88
2022/05/31 03:33:28;;;;;;;2.63;2.42;;;18.60;55.00;;;;;;6214725;23;20188;-87
2022/05/31 03:35:54;;;;;;;2.80;2.20;;;18.60;55.00;;;;;;6189516;23;20153;-86
2022/05/31 03:38:20;;;;;;;2.65;2.42;;;18.60;55.00;;;;;;6219009;23;20215;-87
2022/05/31 03:41:01;;;;;;;5.05;2.50;;;18.60;55.00;;;;;;6194816;23;20149;-87
2022/05/31 03:43:30;;;;;;;2.88;2.22;;;18.60;55.10;;;;;;6201376;23;20161;-88
2022/05/31 03:45:56;;;;;;;2.67;2.20;;;18.60;55.00;;;;;;6170832;23;20572;-85
2022/05/31 03:48:23;;;;;;;2.85;2.60;;;18.60;55.10;;;;;;6169921;23;20168;-86
2022/05/31 03:51:02;;;;;;;3.13;2.30;;;18.50;55.10;;;;;;6219624;23;20557;-85
2022/05/31 03:53:28;;;;;;;2.47;2.20;;;18.60;55.10;;;;;;6194411;23;20149;-86
2022/05/31 03:55:54;;;;;;;3.88;2.40;;;18.60;55.10;;;;;;6195260;23;20149;-87
2022/05/31 03:58:19;;;;;;;3.00;2.40;;;18.50;55.10;;;;;;6219649;23;20469;-86
2022/05/31 04:00:46;;;;;;;2.83;2.50;;;18.60;55.20;;;;;;6195118;23;20141;-86
2022/05/31 04:03:12;;;;;;;3.22;2.45;;;18.60;55.20;;;;;;6194612;23;20539;-86
2022/05/31 04:05:38;;;;;;;2.67;2.13;;;18.50;55.20;;;;;;6170092;23;20149;-88
2022/05/31 04:08:06;;;;;;;2.85;2.28;;;18.50;55.20;;;;;;6219795;23;20631;-86
2022/05/31 04:10:32;;;;;;;3.67;2.20;;;18.60;55.20;;;;;;6170146;23;20352;-86
2022/05/31 04:12:58;;;;;;;2.80;2.30;;;18.50;55.20;;;;;;6219634;23;20164;-87
2022/05/31 04:15:24;;;;;;;2.55;2.35;;;18.50;55.20;;;;;;6195011;23;20130;-87
2022/05/31 04:17:49;;;;;;;2.90;2.33;;;18.50;55.20;;;;;;6194605;23;20144;-87
2022/05/31 04:20:15;;;;;;;2.40;2.20;;;18.50;55.30;;;;;;6246410;23;20189;-86
2022/05/31 04:22:42;;;;;;;3.67;2.67;;;18.50;55.30;;;;;;6194702;23;20133;-87
2022/05/31 04:25:09;;;;;;;2.65;2.30;;;18.50;55.20;;;;;;6219793;23;20157;-86
2022/05/31 04:27:35;;;;;;;2.53;2.33;;;18.50;55.30;;;;;;6220070;23;20133;-86
2022/05/31 04:30:01;;;;;;;3.22;2.50;;;18.50;55.30;;;;;;6194629;23;20153;-87
2022/05/31 04:32:27;;;;;;;3.50;2.60;;;18.50;55.30;;;;;;6195218;23;20145;-87
2022/05/31 04:34:54;;;;;;;2.45;2.20;;;18.50;55.40;;;;;;6171037;23;20557;-87
2022/05/31 04:37:19;;;;;;;2.42;2.22;;;18.50;55.50;;;;;;6194336;23;20130;-88
2022/05/31 04:39:45;;;;;;;2.38;2.10;;;18.50;55.50;;;;;;6150921;23;20224;-88
2022/05/31 04:42:11;;;;;;;2.30;2.08;;;18.50;55.60;;;;;;6139789;23;20211;-87
2022/05/31 04:44:37;;;;;;;2.60;2.40;;;18.40;55.60;;;;;;6139763;23;20205;-87
2022/05/31 04:47:03;;;;;;;2.97;2.50;;;18.40;55.60;;;;;;6164048;23;20137;-86
2022/05/31 04:49:29;;;;;;;2.50;2.30;;;18.40;55.70;;;;;;6164142;23;20157;-87
2022/05/31 04:51:56;;;;;;;3.05;2.58;;;18.50;55.70;;;;;;6140922;23;20154;-87
2022/05/31 04:54:24;;;;;;;2.75;2.20;;;18.40;55.60;;;;;;6164860;23;20562;-86
2022/05/31 04:56:49;;;;;;;2.45;2.25;;;18.40;55.60;;;;;;6167052;23;20228;-86
2022/05/31 04:59:17;;;;;;;2.90;2.40;;;18.50;55.70;;;;;;6141700;23;20457;-86
2022/05/31 05:01:44;;;;;;;2.45;2.25;;;18.50;55.60;;;;;;6191568;23;20501;-88
2022/05/31 05:04:11;;;;;;;2.55;2.35;;;18.50;55.60;;;;;;6166761;23;20178;-86
2022/05/31 05:06:37;;;;;;;2.40;2.20;;;18.50;55.60;;;;;;6166530;23;20142;-87
2022/05/31 05:09:03;;;;;;;2.40;2.20;;;18.50;55.60;;;;;;6142096;23;20154;-87
2022/05/31 05:11:31;;;;;;;2.53;2.33;;;18.40;55.60;;;;;;6191150;23;20210;-87
2022/05/31 05:13:57;;;;;;;2.50;2.30;;;18.40;55.60;;;;;;6142578;23;20146;-87
2022/05/31 05:16:23;;;;;;;2.70;2.47;;;18.40;55.70;;;;;;6191949;23;20142;-88
2022/05/31 05:18:49;;;;;;;2.53;2.33;;;18.50;55.60;;;;;;6191577;23;20157;-86
2022/05/31 05:21:14;;;;;;;2.42;2.22;;;18.50;55.50;;;;;;6166880;23;20174;-87
2022/05/31 05:23:40;;;;;;;2.95;2.33;;;18.50;55.70;;;;;;6166589;23;20479;-87
2022/05/31 05:26:07;;;;;;;2.38;2.17;;;18.50;55.70;;;;;;6142614;23;20146;-86
2022/05/31 05:31:27;;;;;;;2.40;2.20;;;18.50;55.60;;;;;;6193724;23;20141;-87
2022/05/31 05:33:53;;;;;;;2.60;2.25;;;18.50;55.80;;;;;;6136943;23;20242;-88
2022/05/31 05:36:19;;;;;;;2.40;2.20;;;18.50;55.70;;;;;;6138710;23;20157;-86
2022/05/31 05:38:44;;;;;;;3.20;2.17;;;18.40;55.60;;;;;;6195492;23;20276;-87
2022/05/31 05:41:10;;;;;;;2.53;2.17;;;18.40;55.60;;;;;;6219220;23;20207;-86
2022/05/31 05:43:36;;;;;;;2.75;2.08;;;18.50;55.70;;;;;;6194819;23;20790;-87
2022/05/31 05:46:01;;;;;;;2.67;2.40;;;18.50;55.60;;;;;;6219767;23;20134;-88
2022/05/31 05:48:28;;;;;;;2.55;2.28;;;18.50;55.70;;;;;;6196520;23;20126;-88
2022/05/31 05:50:55;;;;;;;2.75;2.33;;;18.50;55.70;;;;;;6196507;23;20623;-87
2022/05/31 05:53:20;;;;;;;2.92;2.40;;;18.40;55.60;;;;;;6196760;23;20569;-87
2022/05/31 05:55:46;;;;;;;2.35;2.10;;;18.50;55.60;;;;;;6247259;23;20152;-86
2022/05/31 05:58:12;;;;;;;2.50;2.30;;;18.50;55.60;;;;;;6172702;23;20157;-86
2022/05/31 06:00:44;;;;;;;2.38;2.17;;;18.50;55.60;;;;;;6249581;23;20138;-87
2022/05/31 06:03:15;;;;;;;2.50;2.30;;;18.50;55.60;;;;;;6174129;23;20508;-88
2022/05/31 06:05:41;;;;;;;2.20;2.00;;;18.50;55.70;;;;;;6173805;23;20233;-87
2022/05/31 06:08:12;;;;;;;2.40;2.20;;;18.50;55.70;;;;;;6222344;23;20149;-85
2022/05/31 06:10:41;;;;;;;2.88;2.47;;;18.50;55.70;;;;;;6198034;23;20215;-87
2022/05/31 06:13:16;;;;;;;3.45;2.30;;;18.50;55.70;;;;;;6198847;23;20149;-86
2022/05/31 06:15:46;;;;;;;2.75;2.30;;;18.40;55.70;;;;;;6197541;23;20176;-88
2022/05/31 06:18:16;;;;;;;3.60;2.20;;;18.50;55.80;;;;;;6223052;23;20575;-86
2022/05/31 06:20:45;;;;;;;2.55;2.10;;;18.40;55.80;;;;;;6197411;23;20134;-87
2022/05/31 06:23:10;;;;;;;2.83;2.40;;;18.50;55.80;;;;;;6222207;23;20608;-86
2022/05/31 06:25:37;;;;;;;2.38;2.17;;;18.50;55.80;;;;;;6197139;23;20134;-86
2022/05/31 06:28:02;;;;;;;2.47;2.25;;;18.40;55.70;;;;;;6197144;23;20527;-87
2022/05/31 06:30:28;;;;;;;2.55;2.20;;;18.40;55.80;;;;;;6197455;23;20122;-86
2022/05/31 06:32:55;;;;;;;2.20;2.00;;;18.50;55.90;;;;;;6197356;23;20168;-86
2022/05/31 06:35:21;;;;;;;2.78;2.30;;;18.50;55.80;;;;;;6222193;23;20476;-87
2022/05/31 06:37:48;;;;;;;2.50;2.30;;;18.40;55.90;;;;;;6197766;23;20145;-86
2022/05/31 06:40:13;;;;;;;2.58;2.30;;;18.50;55.90;;;;;;6196518;23;20189;-87
2022/05/31 06:42:40;;;;;;;2.80;2.30;;;18.50;55.90;;;;;;6195763;23;20153;-86
2022/05/31 06:45:06;;;;;;;2.75;2.45;;;18.50;55.90;;;;;;6195944;23;20169;-86
2022/05/31 06:47:32;;;;;;;2.47;2.25;;;18.50;55.90;;;;;;6196039;23;20586;-86
2022/05/31 06:49:57;;;;;;;2.50;2.30;;;18.50;55.90;;;;;;6220879;23;20130;-86
2022/05/31 06:57:43;;;;;;;2.70;2.35;;;18.50;55.90;;;;;;6202564;23;20214;-87
2022/05/31 07:00:15;;;;;;;3.25;2.80;;;18.50;55.90;;;;;;6171892;23;20238;-87
2022/05/31 07:02:41;;;;;;;2.78;2.40;;;18.50;56.00;;;;;;6221732;23;20137;-86
2022/05/31 07:05:10;;;;;;;2.95;2.20;;;18.50;56.00;;;;;;6221468;23;20531;-87
2022/05/31 07:07:36;;;;;;;2.85;2.30;;;18.50;56.10;;;;;;6172974;23;20149;-87
2022/05/31 07:10:03;;;;;;;2.70;2.40;;;18.50;56.10;;;;;;6196630;23;20136;-88
2022/05/31 07:12:30;;;;;;;2.70;2.38;;;18.50;56.10;;;;;;6197975;23;20156;-87
2022/05/31 07:14:56;;;;;;;2.30;2.10;;;18.50;56.00;;;;;;6196451;23;20163;-86
2022/05/31 07:17:23;;;;;;;2.67;2.20;;;18.50;56.00;;;;;;6220330;23;20216;-86
2022/05/31 07:19:48;;;;;;;3.38;2.00;;;18.40;56.00;;;;;;6245309;23;20207;-87
2022/05/31 07:22:15;;;;;;;2.63;2.40;;;18.40;55.90;;;;;;6220128;23;20153;-87
2022/05/31 07:24:41;;;;;;;2.63;2.20;;;18.50;56.00;;;;;;6172723;23;20250;-86
2022/05/31 07:27:07;;;;;;;2.60;2.20;;;18.50;56.00;;;;;;6172672;23;20146;-88
2022/05/31 07:29:32;;;;;;;2.60;2.40;;;18.40;56.00;;;;;;6221043;23;20156;-86
2022/05/31 07:32:00;;;;;;;2.30;2.10;;;18.50;56.00;;;;;;6195537;23;20152;-87
2022/05/31 07:34:26;;;;;;;2.30;2.10;;;18.50;56.00;;;;;;6171686;23;20164;-86
2022/05/31 07:36:52;;;;;;;2.20;2.00;;;18.50;56.00;;;;;;6196251;23;20125;-86
2022/05/31 07:39:18;;;;;;;3.13;2.50;;;18.50;56.10;;;;;;6170287;23;20196;-88
2022/05/31 07:41:45;;;;;;;2.78;2.03;;;18.50;56.10;;;;;;6194723;23;20156;-88
2022/05/31 07:44:11;;;;;;;2.92;2.20;;;18.50;56.10;;;;;;6172056;23;20240;-87
2022/05/31 07:46:39;;;;;;;2.47;2.22;;;18.50;56.00;;;;;;6225855;23;20168;-86
2022/05/31 07:49:06;;;;;;;2.42;2.22;;;18.50;56.10;;;;;;6199908;23;20561;-85
2022/05/31 07:51:32;;;;;;;2.35;2.15;;;18.50;56.00;;;;;;6250449;23;20176;-87
2022/05/31 07:53:58;;;;;;;2.97;2.03;;;18.50;56.10;;;;;;6198046;23;20149;-87
2022/05/31 07:56:23;;;;;;;3.50;2.00;;;18.50;56.00;;;;;;6198052;23;20140;-87
2022/05/31 07:58:49;;;;;;;2.70;2.40;;;18.60;56.10;;;;;;6171715;23;20145;-86
2022/05/31 08:01:17;;;;;;;3.58;2.42;;;18.60;56.00;;;;;;6196481;23;20465;-86
2022/05/31 08:03:43;;;;;;;2.78;2.50;;;18.50;56.00;;;;;;6173452;23;20246;-85
2022/05/31 08:06:10;;;;;;;3.03;2.50;;;18.60;56.00;;;;;;6197787;23;20190;-86
2022/05/31 08:08:36;;;;;;;2.90;2.50;;;18.50;55.90;;;;;;6221916;23;20129;-87
2022/05/31 08:11:04;;;;;;;3.75;2.13;;;18.60;56.10;;;;;;6222444;23;20194;-86
2022/05/31 08:13:30;;;;;;;2.55;2.35;;;18.60;56.00;;;;;;6198508;23;20148;-86
2022/05/31 08:15:57;;;;;;;2.38;2.17;;;18.60;55.90;;;;;;6197299;23;20153;-87
2022/05/31 08:18:24;;;;;;;2.60;2.40;;;18.60;56.00;;;;;;6173625;23;20229;-85
2022/05/31 08:20:56;;;;;;;2.58;2.35;;;18.60;56.10;;;;;;6197047;23;20144;-86
2022/05/31 08:23:22;;;;;;;2.50;2.05;;;18.60;56.10;;;;;;6223000;23;20168;-87
2022/05/31 08:25:47;;;;;;;2.58;2.38;;;18.60;55.90;;;;;;6221785;23;20130;-87
2022/05/31 08:28:14;;;;;;;2.38;2.10;;;18.60;55.90;;;;;;6196619;23;20195;-86
2022/05/31 08:30:41;;;;;;;2.42;2.20;;;18.60;56.00;;;;;;6184287;23;20152;-87
2022/05/31 08:33:09;;;;;;;2.58;2.35;;;18.60;55.90;;;;;;6223161;23;20129;-85
2022/05/31 08:35:34;;;;;;;2.58;2.30;;;18.60;55.90;;;;;;6198533;23;20141;-86
2022/05/31 08:38:01;;;;;;;2.63;2.40;;;18.60;55.90;;;;;;6224207;23;20159;-85
2022/05/31 08:40:28;;;;;;;2.45;2.13;;;18.60;56.00;;;;;;6172608;23;20214;-87
2022/05/31 08:42:58;;;;;;;2.45;2.25;;;18.60;56.00;;;;;;6249873;23;20209;-86
2022/05/31 08:45:37;;;;;;;2.30;2.10;;;18.60;56.00;;;;;;6176557;23;20228;-87
2022/05/31 08:48:09;;;;;;;5.63;2.58;;;18.70;56.10;;;;;;6203118;23;20640;-87
2022/05/31 08:53:30;;;;;;;2.70;2.33;;;18.70;56.30;;;;;;6202026;23;20145;-86
2022/05/31 08:58:59;;;;;;;2.42;2.17;;;18.70;56.10;;;;;;6203324;23;20164;-88
2022/05/31 09:01:28;;;;;;;3.15;2.40;;;18.70;56.10;;;;;;6222371;23;20164;-85
2022/05/31 09:04:23;;;;;;;5.07;2.67;;;18.70;56.20;;;;;;6222058;23;20660;-85
2022/05/31 09:07:07;;;;;;;2.70;2.30;;;18.70;56.90;;;;;;6223484;23;20255;-87
2022/05/31 09:09:39;;;;;;;2.83;2.28;;;18.70;56.30;;;;;;6200208;23;20134;-86
2022/05/31 09:12:30;;;;;;;3.92;2.38;;;18.70;56.40;;;;;;6197790;23;20217;-87
2022/05/31 09:15:09;;;;;;;3.25;2.30;;;18.70;56.40;;;;;;6205844;23;20138;-86
2022/05/31 09:17:59;;;;;;;6.38;2.70;;;18.70;56.40;;;;;;6222374;23;20168;-87
2022/05/31 09:20:46;;;;;;;5.55;2.65;;;18.70;56.40;;;;;;6200451;23;20137;-87
2022/05/31 09:23:20;;;;;;;8.10;2.50;;;18.70;56.60;;;;;;6224963;23;20140;-87
2022/05/31 09:26:06;;;;;;;3.63;2.63;;;18.70;56.80;;;;;;6199453;23;20145;-86
2022/05/31 09:28:39;;;;;;;4.25;2.70;;;18.60;56.50;;;;;;6224077;23;20157;-87
2022/05/31 09:31:15;;;;;;;3.85;2.50;;;18.70;56.60;;;;;;6199268;23;20129;-86
2022/05/31 09:33:46;;;;;;;6.28;2.40;;;18.80;56.60;;;;;;6172870;23;20175;-86
2022/05/31 09:36:24;;;;;;;6.85;2.60;;;18.80;56.70;;;;;;6196141;23;20177;-87
2022/05/31 09:39:06;;;;;;;6.05;2.50;;;18.80;56.70;;;;;;6171725;23;20153;-86
2022/05/31 09:41:37;;;;;;;4.38;2.60;;;18.80;56.60;;;;;;6195645;23;20585;-86
2022/05/31 09:44:26;;;;;;;4.53;2.42;;;18.80;56.90;;;;;;6197364;23;20645;-86
2022/05/31 09:47:14;;;;;;;4.28;2.40;;;18.80;56.90;;;;;;6220679;23;20125;-87
2022/05/31 09:49:46;;;;;;;7.15;2.85;;;18.80;56.60;;;;;;6199603;23;20226;-86
2022/05/31 09:52:47;;;;;;;5.30;2.70;;;18.70;56.80;;;;;;6196361;23;20129;-86
2022/05/31 09:58:08;;;;;;;3.72;2.88;;;18.80;56.80;;;;;;6201447;23;20185;-86
2022/05/31 10:00:35;;;;;;;7.38;2.60;;;18.70;57.00;;;;;;6222790;23;20129;-87
2022/05/31 10:03:09;;;;;;;5.78;2.53;;;18.80;57.10;;;;;;6196862;23;20510;-87
2022/05/31 10:05:38;;;;;;;5.22;2.97;;;18.80;57.20;;;;;;6172551;23;20154;-87
2022/05/31 10:08:15;;;;;;;4.88;2.95;;;18.80;57.80;;;;;;6196893;23;20176;-87
2022/05/31 10:10:46;;;;;;;4.07;2.92;;;18.80;57.20;;;;;;6197807;23;20132;-86
2022/05/31 10:13:13;;;;;;;3.30;2.50;;;18.80;57.30;;;;;;6173772;23;20148;-87
2022/05/31 10:15:49;;;;;;;4.55;2.78;;;18.90;57.40;;;;;;6175358;23;20483;-87
2022/05/31 10:18:28;;;;;;;4.47;2.80;;;18.90;58.00;;;;;;6199350;23;20145;-86
2022/05/31 10:21:00;;;;;;;4.28;2.97;;;18.80;57.40;;;;;;6197776;23;20187;-87
2022/05/31 10:23:34;;;;;;;4.28;2.78;;;18.90;57.50;;;;;;6173491;23;20177;-86
2022/05/31 10:26:00;;;;;;;5.35;3.10;;;18.90;57.60;;;;;;6172844;23;20141;-87
2022/05/31 10:28:30;;;;;;;3.95;3.00;;;18.90;57.70;;;;;;6222311;23;20311;-86
2022/05/31 10:31:16;;;;;;;3.72;3.20;;;18.90;57.80;;;;;;6197862;23;20164;-86
2022/05/31 10:33:43;;;;;;;3.92;3.15;;;18.80;57.60;;;;;;6227447;23;20164;-87
2022/05/31 10:36:16;;;;;;;5.20;3.03;;;18.90;57.90;;;;;;6176496;23;20199;-87
2022/05/31 10:38:44;;;;;;;4.03;3.15;;;18.90;58.00;;;;;;6176378;23;20175;-86
2022/05/31 10:41:19;;;;;;;4.88;3.45;;;18.90;58.20;;;;;;6201392;23;20138;-87
2022/05/31 10:43:50;;;;;;;5.38;3.28;;;18.90;58.10;;;;;;6223844;23;20244;-86
2022/05/31 10:46:28;;;;;;;4.00;3.17;;;18.90;58.00;;;;;;6177419;23;20142;-88
2022/05/31 10:49:02;;;;;;;4.78;3.17;;;18.90;58.20;;;;;;6225881;23;20153;-87
2022/05/31 10:51:53;;;;;;;4.65;3.38;;;18.90;58.20;;;;;;6224982;23;20395;-87
2022/05/31 10:54:38;;;;;;;5.78;3.33;;;18.90;58.30;;;;;;6184266;23;20153;-87
2022/05/31 10:57:13;;;;;;;4.78;3.17;;;18.90;58.30;;;;;;6199338;23;20171;-87
2022/05/31 10:59:46;;;;;;;4.65;3.67;;;18.90;58.40;;;;;;6176517;23;20147;-87
2022/05/31 11:02:31;;;;;;;4.75;3.75;;;18.90;58.50;;;;;;6175697;23;20167;-87
2022/05/31 11:05:10;;;;;;;4.68;2.85;;;18.80;58.20;;;;;;6225687;23;20165;-88
2022/05/31 11:13:39;;;;;;;5.00;3.22;;;18.90;58.60;;;;;;6205382;23;20134;-87
2022/05/31 11:16:26;;;;;;;5.45;3.25;;;18.90;58.70;;;;;;6201142;23;20138;-86
2022/05/31 11:19:29;;;;;;;4.95;3.17;;;18.80;58.70;;;;;;6227951;23;20133;-86
2022/05/31 11:22:13;;;;;;;3.90;3.28;;;18.90;58.90;;;;;;6223489;23;20628;-86
2022/05/31 11:24:47;;;;;;;4.88;3.42;;;18.90;58.90;;;;;;6223038;23;20196;-86
2022/05/31 11:27:30;;;;;;;4.10;3.25;;;18.90;59.00;;;;;;6200137;23;20148;-87
2022/05/31 11:30:04;;;;;;;5.30;3.50;;;18.90;58.90;;;;;;6198117;23;20137;-86
2022/05/31 11:33:02;;;;;;;4.85;3.70;;;18.90;58.90;;;;;;6173906;23;20145;-87
2022/05/31 11:35:48;;;;;;;5.18;3.38;;;18.90;59.20;;;;;;6204610;23;20147;-86
2022/05/31 11:38:33;;;;;;;6.10;4.18;;;19.00;59.10;;;;;;6175305;23;20520;-87
2022/05/31 11:41:13;;;;;;;4.05;3.60;;;18.90;59.20;;;;;;6223804;23;20236;-88
2022/05/31 11:43:55;;;;;;;4.30;3.60;;;18.90;59.20;;;;;;6198034;23;20508;-86
2022/05/31 11:46:29;;;;;;;4.45;3.55;;;18.90;59.20;;;;;;6198328;23;20132;-87
2022/05/31 11:49:00;;;;;;;5.10;3.88;;;18.90;59.30;;;;;;6172322;23;20229;-87
2022/05/31 11:51:56;;;;;;;4.47;3.63;;;18.90;59.30;;;;;;6171181;23;20165;-87
2022/05/31 11:54:31;;;;;;;4.18;3.75;;;19.00;59.40;;;;;;6202406;23;20173;-86
2022/05/31 11:57:20;;;;;;;5.03;4.03;;;18.90;59.40;;;;;;6172541;23;20149;-87
2022/05/31 11:59:52;;;;;;;4.18;3.78;;;18.90;59.40;;;;;;6174581;23;20146;-87
2022/05/31 12:02:40;;;;;;;5.43;3.40;;;18.90;59.40;;;;;;6221703;23;20569;-87
2022/05/31 12:05:14;;;;;;;4.25;3.72;;;18.90;59.50;;;;;;6173831;23;20235;-87
2022/05/31 12:07:43;;;;;;;4.85;3.60;;;18.90;59.60;;;;;;6177442;23;20142;-87
2022/05/31 12:10:17;;;;;;;4.78;3.70;;;18.80;59.60;;;;;;6200148;23;20137;-87
2022/05/31 12:12:44;;;;;;;4.25;3.78;;;18.90;59.70;;;;;;6174554;23;20140;-87
2022/05/31 12:15:15;;;;;;;4.07;3.22;;;18.90;59.70;;;;;;6199198;23;20504;-86
2022/05/31 12:18:06;;;;;;;5.10;4.03;;;18.90;59.90;;;;;;6173778;23;20146;-87
2022/05/31 12:20:55;;;;;;;4.22;3.55;;;19.00;59.80;;;;;;6201064;23;20146;-86
2022/05/31 12:23:36;;;;;;;5.50;4.05;;;18.90;60.70;;;;;;6177544;23;20173;-87
2022/05/31 12:26:04;;;;;;;4.55;3.55;;;18.90;59.90;;;;;;6201701;23;20169;-86
2022/05/31 12:28:37;;;;;;;4.78;3.85;;;18.90;60.00;;;;;;6176708;23;20142;-86
2022/05/31 12:31:13;;;;;;;5.65;3.88;;;18.90;60.00;;;;;;6181183;23;20168;-86
2022/05/31 12:33:43;;;;;;;4.22;3.80;;;18.90;60.20;;;;;;6172997;23;20173;-87
2022/05/31 12:36:11;;;;;;;4.95;3.70;;;18.90;60.30;;;;;;6198242;23;20156;-88
2022/05/31 12:38:59;;;;;;;4.63;4.13;;;18.90;60.30;;;;;;6171664;23;20219;-86
2022/05/31 12:41:38;;;;;;;4.72;3.72;;;18.90;60.30;;;;;;6174517;23;20176;-86
2022/05/31 12:44:33;;;;;;;4.32;3.85;;;19.00;60.50;;;;;;6173991;23;20323;-87
2022/05/31 12:47:32;;;;;;;4.47;3.90;;;18.90;60.50;;;;;;6199214;23;20141;-87
2022/05/31 12:50:07;;;;;;;5.13;3.63;;;18.90;60.70;;;;;;6197620;23;20138;-86
2022/05/31 12:52:56;;;;;;;4.25;3.80;;;18.90;60.90;;;;;;6201210;23;20125;-87
2022/05/31 12:55:46;;;;;;;5.57;3.67;;;18.90;60.80;;;;;;6225733;23;20158;-86
2022/05/31 12:58:56;;;;;;;4.25;3.75;;;18.90;60.80;;;;;;6178041;23;20149;-86
2022/05/31 13:01:43;;;;;;;4.13;3.72;;;18.90;60.50;;;;;;6127385;23;20159;-87
2022/05/31 13:04:17;;;;;;;6.35;3.97;;;18.90;60.70;;;;;;6082649;23;20341;-86
2022/05/31 13:07:07;;;;;;;4.60;3.85;;;18.90;60.70;;;;;;6080037;23;20274;-86
2022/05/31 13:09:35;;;;;;;4.43;3.90;;;19.00;60.60;;;;;;6103253;23;20148;-86
2022/05/31 13:20:44;;;;;;;5.13;4.20;;;18.90;60.50;;;;;;6083365;23;20154;-88
2022/05/31 13:23:34;;;;;;;4.60;4.00;;;18.90;60.70;;;;;;6084628;23;20215;-88
2022/05/31 13:26:02;;;;;;;5.20;4.35;;;19.00;60.60;;;;;;6103125;23;20181;-88
2022/05/31 13:28:38;;;;;;;5.07;4.10;;;18.90;60.60;;;;;;6142031;23;20217;-89
2022/05/31 13:31:21;;;;;;;4.53;4.00;;;19.00;60.60;;;;;;6106118;23;20156;-89
2022/05/31 13:34:06;;;;;;;6.07;3.95;;;19.00;60.70;;;;;;6049968;23;20167;-89
2022/05/31 13:36:33;;;;;;;4.57;4.13;;;19.00;60.70;;;;;;6129657;23;20163;-89
2022/05/31 13:39:54;;;;;;;5.50;4.00;;;19.00;60.80;;;;;;6084747;23;20156;-90